Center Harbor, New Hampshire
Current Conditions -  °F | °C
As of 12:15 PM on Thursday 23 Oct 2014 (Local Time) from KLCI Reporting Station
Overcast Overcast  
Wind Chill: 43°   Ceiling: 1500
Heat Index: 48°   Visibility: 7mi
Dew Point: 45°   Wind: 14mph
Humidity: 87%   Direction: 50°NE
Pressure: 29.78"   Gusts: 22mph
Location:  43.71°N, 71.46°W
Report Text: KLCI 231615Z AUTO 05012G19KT 7SM BKN015 OVC021 09/07 A2978 RMK AO1 P0002
Loading
Personal Weather Stations






























Interactive Weather Map
Tropical Storm Tracking
New forecast layout! Learn more

10-Day Weather Forecast

Advertisements
Track Severe Weather on mobile